createdAt,value
2022-11-29T00:01:01.655Z,13.00
2022-11-29T00:03:29.968Z,13.98
2022-11-29T00:05:57.936Z,17.25
2022-11-29T00:08:25.431Z,16.13
2022-11-29T00:10:53.345Z,14.43
2022-11-29T00:13:20.799Z,15.60
2022-11-29T00:15:48.286Z,15.48
2022-11-29T00:18:17.072Z,17.88
2022-11-29T00:20:44.538Z,20.35
2022-11-29T00:23:12.017Z,18.92
2022-11-29T00:25:39.867Z,19.13
2022-11-29T00:28:07.512Z,22.25
2022-11-29T00:30:35.020Z,21.67
2022-11-29T00:33:03.033Z,17.48
2022-11-29T00:35:31.831Z,22.48
2022-11-29T00:37:59.328Z,21.08
2022-11-29T00:40:26.792Z,22.58
2022-11-29T00:42:54.235Z,17.38
2022-11-29T00:45:21.820Z,20.95
2022-11-29T00:47:49.257Z,22.25
2022-11-29T00:50:16.779Z,22.42
2022-11-29T00:52:45.570Z,23.13
2022-11-29T00:55:13.022Z,18.42
2022-11-29T00:57:40.486Z,19.38
2022-11-29T01:00:09.359Z,20.00
2022-11-29T01:02:36.878Z,20.27
2022-11-29T01:05:04.573Z,18.38
2022-11-29T01:07:32.079Z,19.15
2022-11-29T01:10:00.882Z,19.95
2022-11-29T01:12:28.341Z,18.40
2022-11-29T01:14:55.783Z,19.30
2022-11-29T01:17:23.271Z,20.08
2022-11-29T01:19:51.239Z,18.88
2022-11-29T01:22:18.739Z,17.67
2022-11-29T01:24:46.416Z,17.92
2022-11-29T01:27:15.566Z,15.68
2022-11-29T01:29:43.058Z,17.38
2022-11-29T01:32:12.302Z,20.60
2022-11-29T01:34:40.352Z,15.45
2022-11-29T01:37:07.852Z,19.42
2022-11-29T01:39:35.598Z,19.40
2022-11-29T01:42:03.061Z,18.27
2022-11-29T01:45:08.868Z,17.77
2022-11-29T01:47:46.943Z,17.45
2022-11-29T01:50:14.655Z,18.60
2022-11-29T01:52:43.028Z,15.23
2022-11-29T01:55:11.128Z,15.95
2022-11-29T01:57:41.870Z,19.45
2022-11-29T02:00:15.496Z,16.98
2022-11-29T02:02:45.289Z,17.80
2022-11-29T02:05:15.215Z,16.52
2022-11-29T02:07:45.700Z,16.25
2022-11-29T02:10:15.555Z,15.82
2022-11-29T02:12:55.257Z,15.65
2022-11-29T02:15:34.214Z,15.80
2022-11-29T02:18:07.574Z,25.85
2022-11-29T02:21:03.847Z,47.92
2022-11-29T02:23:58.367Z,20.52
2022-11-29T02:26:50.352Z,17.58
2022-11-29T02:29:32.612Z,17.73
2022-11-29T02:32:20.411Z,17.33
2022-11-29T02:35:00.111Z,19.70
2022-11-29T02:37:57.851Z,20.83
2022-11-29T02:40:52.151Z,20.80
2022-11-29T02:43:35.556Z,23.17
2022-11-29T02:46:27.752Z,22.70
2022-11-29T02:49:03.468Z,22.98
2022-11-29T02:51:40.024Z,21.23
2022-11-29T02:54:13.119Z,24.45
2022-11-29T02:56:47.557Z,19.60
2022-11-29T02:59:24.551Z,21.58
2022-11-29T03:02:02.238Z,21.67
2022-11-29T03:04:35.405Z,19.38
2022-11-29T03:07:14.220Z,21.15
2022-11-29T03:09:47.220Z,21.73
2022-11-29T03:12:22.850Z,20.05
2022-11-29T03:14:58.210Z,21.65
2022-11-29T03:17:36.549Z,24.58
2022-11-29T03:20:27.077Z,20.08
2022-11-29T03:23:09.672Z,24.23
2022-11-29T03:25:40.673Z,20.58
2022-11-29T03:28:14.451Z,19.75
2022-11-29T03:30:48.873Z,22.88
2022-11-29T03:33:25.586Z,28.97
2022-11-29T03:36:00.493Z,22.70
2022-11-29T03:38:36.025Z,19.73
2022-11-29T03:41:15.004Z,19.65
2022-11-29T03:43:46.670Z,19.33
2022-11-29T03:46:19.753Z,18.98
2022-11-29T03:48:50.692Z,22.92
2022-11-29T03:51:23.164Z,20.15
2022-11-29T03:53:58.200Z,18.65
2022-11-29T03:56:32.438Z,19.77
2022-11-29T03:59:13.204Z,20.85
2022-11-29T04:02:09.100Z,34.35
2022-11-29T04:05:08.828Z,24.52
2022-11-29T04:07:49.950Z,20.83
2022-11-29T04:10:28.823Z,21.50
2022-11-29T04:13:26.254Z,16.90
2022-11-29T04:16:25.721Z,24.30
2022-11-29T04:19:37.599Z,17.70
2022-11-29T04:22:23.862Z,24.08
2022-11-29T04:25:23.213Z,19.25
2022-11-29T04:28:33.646Z,18.58
2022-11-29T04:31:14.521Z,25.13
2022-11-29T04:34:16.532Z,26.17
2022-11-29T04:36:58.057Z,26.40
2022-11-29T04:39:51.184Z,21.85
2022-11-29T04:42:48.418Z,26.63
2022-11-29T04:45:38.600Z,27.27
2022-11-29T04:48:24.825Z,24.67
2022-11-29T04:51:04.987Z,26.10
2022-11-29T04:53:53.767Z,33.60
2022-11-29T04:56:29.467Z,30.35
2022-11-29T04:59:03.138Z,26.58
2022-11-29T05:01:42.284Z,30.10
2022-11-29T05:04:18.160Z,29.95
2022-11-29T05:06:59.253Z,30.90
2022-11-29T05:09:37.852Z,28.30
2022-11-29T05:12:15.349Z,26.83
2022-11-29T05:15:02.890Z,30.77
2022-11-29T05:17:43.327Z,27.52
2022-11-29T05:20:26.421Z,26.13
2022-11-29T05:23:05.958Z,26.50
2022-11-29T05:25:41.397Z,25.85
2022-11-29T05:28:16.650Z,27.85
2022-11-29T05:33:38.535Z,29.85
2022-11-29T05:36:18.301Z,27.98
2022-11-29T05:38:58.128Z,26.85
2022-11-29T05:41:44.847Z,25.77
2022-11-29T05:44:16.466Z,25.50
2022-11-29T05:46:55.051Z,30.27
2022-11-29T05:49:34.372Z,29.50
2022-11-29T05:52:20.099Z,32.75
2022-11-29T05:57:38.329Z,40.50
2022-11-29T06:00:07.615Z,36.83
2022-11-29T06:02:49.789Z,38.45
2022-11-29T06:05:26.880Z,30.38
2022-11-29T06:07:59.383Z,34.05
2022-11-29T06:10:32.673Z,43.60
2022-11-29T06:13:11.058Z,36.70
2022-11-29T06:15:56.553Z,41.70
2022-11-29T06:18:46.131Z,42.88
2022-11-29T06:21:23.767Z,42.33
2022-11-29T06:24:26.080Z,36.00
2022-11-29T06:27:14.717Z,38.38
2022-11-29T06:29:49.297Z,32.40
2022-11-29T06:32:25.418Z,37.78
2022-11-29T06:34:58.850Z,37.55
2022-11-29T06:37:34.327Z,34.70
2022-11-29T06:40:02.303Z,47.28
2022-11-29T06:42:29.777Z,37.47
2022-11-29T06:44:57.932Z,33.38
2022-11-29T06:47:30.760Z,50.53
2022-11-29T06:50:04.609Z,41.83
2022-11-29T06:52:44.738Z,37.70
2022-11-29T06:55:17.981Z,34.05
2022-11-29T06:58:02.097Z,33.80
2022-11-29T07:00:40.493Z,36.75
2022-11-29T07:03:30.583Z,26.65
2022-11-29T07:05:59.099Z,40.50
2022-11-29T07:08:28.535Z,35.33
2022-11-29T07:10:56.568Z,31.20
2022-11-29T07:13:24.549Z,39.53
2022-11-29T07:16:01.633Z,37.88
2022-11-29T07:18:35.071Z,33.35
2022-11-29T07:21:14.603Z,42.40
2022-11-29T07:23:53.907Z,37.55
2022-11-29T07:26:30.066Z,36.80
2022-11-29T07:29:16.853Z,30.35
2022-11-29T07:31:55.410Z,34.70
2022-11-29T07:34:30.916Z,36.85
2022-11-29T07:37:05.032Z,39.85
2022-11-29T07:39:44.905Z,42.10
2022-11-29T07:42:20.618Z,31.70
2022-11-29T07:44:57.009Z,45.78
2022-11-29T07:47:24.480Z,41.05
2022-11-29T07:49:52.019Z,39.55
2022-11-29T07:52:19.600Z,41.55
2022-11-29T07:54:48.610Z,40.95
2022-11-29T07:57:16.130Z,38.08
2022-11-29T07:59:43.818Z,48.47
2022-11-29T08:02:12.092Z,39.67
2022-11-29T08:04:43.205Z,40.55
2022-11-29T08:07:11.219Z,41.65
2022-11-29T08:09:38.666Z,47.00
2022-11-29T08:12:08.293Z,39.17
2022-11-29T08:14:35.776Z,39.67
2022-11-29T08:17:03.451Z,41.88
2022-11-29T08:19:30.875Z,44.08
2022-11-29T08:21:58.397Z,42.40
2022-11-29T08:24:26.959Z,43.17
2022-11-29T08:26:54.585Z,42.58
2022-11-29T08:29:23.666Z,40.53
2022-11-29T08:31:53.222Z,45.42
2022-11-29T08:34:21.160Z,39.88
2022-11-29T08:36:48.768Z,41.80
2022-11-29T08:39:16.237Z,35.45
2022-11-29T08:41:44.096Z,31.33
2022-11-29T08:44:11.537Z,29.95
2022-11-29T08:46:58.048Z,35.13
2022-11-29T08:49:25.547Z,34.38
2022-11-29T08:52:13.609Z,39.83
2022-11-29T08:54:40.090Z,29.95
2022-11-29T08:57:38.458Z,33.67
2022-11-29T08:59:55.070Z,36.92
2022-11-29T09:02:24.001Z,28.55
2022-11-29T09:04:51.456Z,36.58
2022-11-29T09:07:18.962Z,35.13
2022-11-29T09:09:46.419Z,45.00
2022-11-29T09:12:13.870Z,32.50
2022-11-29T09:14:41.650Z,40.50
2022-11-29T09:17:09.156Z,49.20
2022-11-29T09:19:37.967Z,39.50
2022-11-29T09:22:05.484Z,44.25
2022-11-29T09:24:34.227Z,39.95
2022-11-29T09:27:01.690Z,44.05
2022-11-29T09:29:29.182Z,41.65
2022-11-29T09:31:56.687Z,39.65
2022-11-29T09:34:24.443Z,42.00
2022-11-29T09:36:53.289Z,42.97
2022-11-29T09:39:20.861Z,47.42
2022-11-29T09:42:22.112Z,39.13
2022-11-29T09:45:01.546Z,42.75
2022-11-29T09:48:02.177Z,39.42
2022-11-29T09:50:34.825Z,39.17
2022-11-29T09:53:21.117Z,44.85
2022-11-29T09:56:01.168Z,45.17
2022-11-29T09:58:33.897Z,43.53
2022-11-29T10:01:05.353Z,45.53
2022-11-29T10:03:37.163Z,38.85
2022-11-29T10:06:09.679Z,41.15
2022-11-29T10:08:44.050Z,38.55
2022-11-29T10:11:20.414Z,40.90
2022-11-29T10:13:53.008Z,49.22
2022-11-29T10:16:26.835Z,45.10
2022-11-29T10:18:59.744Z,39.42
2022-11-29T10:21:32.688Z,38.42
2022-11-29T10:24:06.349Z,46.40
2022-11-29T10:26:35.498Z,43.08
2022-11-29T10:29:03.502Z,40.45
2022-11-29T10:31:36.464Z,39.45
2022-11-29T10:34:12.908Z,38.80
2022-11-29T10:36:44.409Z,41.30
2022-11-29T10:39:18.284Z,50.03
2022-11-29T10:41:46.325Z,34.72
2022-11-29T10:44:15.813Z,42.63
2022-11-29T10:46:43.455Z,38.85
2022-11-29T10:49:15.846Z,48.40
2022-11-29T10:51:43.661Z,42.70
2022-11-29T10:54:29.660Z,42.85
2022-11-29T10:56:58.076Z,46.65
2022-11-29T10:59:27.455Z,44.53
2022-11-29T11:01:55.471Z,47.67
2022-11-29T11:04:29.287Z,47.38
2022-11-29T11:07:00.880Z,40.42
2022-11-29T11:09:37.598Z,41.83
2022-11-29T11:12:08.884Z,44.83
2022-11-29T11:14:38.559Z,37.33
2022-11-29T11:17:22.429Z,45.25
2022-11-29T11:19:57.012Z,36.85
2022-11-29T11:22:26.817Z,33.58
2022-11-29T11:25:02.009Z,39.67
2022-11-29T11:29:59.471Z,42.88
2022-11-29T11:32:27.109Z,46.92
2022-11-29T11:34:55.768Z,36.25
2022-11-29T11:37:26.012Z,43.25
2022-11-29T11:39:56.675Z,43.00
2022-11-29T11:42:38.653Z,35.13
2022-11-29T11:45:23.907Z,48.05
2022-11-29T11:47:53.871Z,51.53
2022-11-29T11:50:29.479Z,50.00
2022-11-29T11:52:59.237Z,49.95
2022-11-29T11:55:33.263Z,55.65
2022-11-29T11:58:10.274Z,59.03
2022-11-29T12:01:02.847Z,59.88
2022-11-29T12:03:44.538Z,62.50
2022-11-29T12:06:25.657Z,53.47
2022-11-29T12:08:58.650Z,53.58
2022-11-29T12:11:27.250Z,59.95
2022-11-29T12:14:00.099Z,57.40
2022-11-29T12:16:34.304Z,64.18
2022-11-29T12:19:05.966Z,59.15
2022-11-29T12:21:39.287Z,62.80
2022-11-29T12:24:19.872Z,60.63
2022-11-29T12:26:57.159Z,63.25
2022-11-29T12:29:33.547Z,71.15
2022-11-29T12:32:12.693Z,71.38
2022-11-29T12:34:53.650Z,68.65
2022-11-29T12:37:26.050Z,72.82
2022-11-29T12:39:58.524Z,76.43
2022-11-29T12:42:36.556Z,70.43
2022-11-29T12:45:25.178Z,64.63
2022-11-29T12:48:04.887Z,65.20
2022-11-29T12:50:45.294Z,64.00
2022-11-29T12:53:27.538Z,78.32
2022-11-29T12:56:05.987Z,89.78
2022-11-29T12:58:46.223Z,88.57
2022-11-29T13:01:23.625Z,86.75
2022-11-29T13:03:59.840Z,80.68
2022-11-29T13:06:32.488Z,81.78
2022-11-29T13:09:21.683Z,86.57
2022-11-29T13:11:56.888Z,90.30
2022-11-29T13:17:26.074Z,104.10
2022-11-29T13:19:57.280Z,96.80
2022-11-29T13:22:29.676Z,90.63
2022-11-29T13:25:00.083Z,87.45
2022-11-29T13:27:32.001Z,86.30
2022-11-29T13:30:00.523Z,85.15
2022-11-29T13:32:36.063Z,87.68
2022-11-29T13:35:08.809Z,87.38
2022-11-29T13:37:43.635Z,93.57
2022-11-29T13:40:24.324Z,81.38
2022-11-29T13:43:01.067Z,81.75
2022-11-29T13:45:37.391Z,85.80
2022-11-29T13:48:27.844Z,71.55
2022-11-29T13:50:57.120Z,88.78
2022-11-29T13:53:26.311Z,86.63
2022-11-29T13:56:01.285Z,85.18
2022-11-29T13:58:37.728Z,95.70
2022-11-29T14:01:09.018Z,81.43
2022-11-29T14:03:42.508Z,79.45
2022-11-29T14:06:20.904Z,96.22
2022-11-29T14:09:19.666Z,90.90
2022-11-29T14:11:50.543Z,85.72
2022-11-29T14:14:27.083Z,84.90
2022-11-29T14:16:58.935Z,85.13
2022-11-29T14:19:33.709Z,86.70
2022-11-29T14:25:16.531Z,84.65
2022-11-29T14:28:01.637Z,78.63
2022-11-29T14:30:45.102Z,82.88
2022-11-29T14:33:24.042Z,67.63
2022-11-29T14:36:17.920Z,68.97
2022-11-29T14:38:55.852Z,54.78
2022-11-29T14:41:32.779Z,63.20
2022-11-29T14:44:15.102Z,61.45
2022-11-29T14:46:42.644Z,71.38
2022-11-29T14:49:22.879Z,58.42
2022-11-29T14:52:11.237Z,59.58
2022-11-29T14:54:55.660Z,54.00
2022-11-29T14:58:05.692Z,57.70
2022-11-29T15:00:41.756Z,52.83
2022-11-29T15:03:13.735Z,53.45
2022-11-29T15:05:43.816Z,49.08
2022-11-29T15:08:17.457Z,51.90
2022-11-29T15:10:50.020Z,61.10
2022-11-29T15:13:24.048Z,56.67
2022-11-29T15:16:12.686Z,50.22
2022-11-29T15:19:02.593Z,55.92
2022-11-29T15:21:38.671Z,53.70
2022-11-29T15:24:13.451Z,60.35
2022-11-29T15:26:55.735Z,48.15
2022-11-29T15:29:23.519Z,49.13
2022-11-29T15:31:54.266Z,55.10
2022-11-29T15:34:26.546Z,54.50
2022-11-29T15:36:54.076Z,54.05
2022-11-29T15:39:31.720Z,49.75
2022-11-29T15:42:04.118Z,45.60
2022-11-29T15:44:33.162Z,43.90
2022-11-29T15:47:17.663Z,47.90
2022-11-29T15:49:45.176Z,46.20
2022-11-29T15:52:20.481Z,50.65
2022-11-29T15:54:53.100Z,49.28
2022-11-29T15:57:26.168Z,41.67
2022-11-29T15:59:56.688Z,49.20
2022-11-29T16:02:27.540Z,45.97
2022-11-29T16:04:58.905Z,45.45
2022-11-29T16:07:31.996Z,50.80
2022-11-29T16:10:04.752Z,49.58
2022-11-29T16:12:33.092Z,50.15
2022-11-29T16:15:02.045Z,51.60
2022-11-29T16:17:31.835Z,45.22
2022-11-29T16:20:22.604Z,45.03
2022-11-29T16:23:04.072Z,40.75
2022-11-29T16:25:37.669Z,37.42
2022-11-29T16:28:06.442Z,47.65
2022-11-29T16:30:34.161Z,39.97
2022-11-29T16:33:03.947Z,43.40
2022-11-29T16:35:33.726Z,47.85
2022-11-29T16:38:04.476Z,45.35
2022-11-29T16:40:35.589Z,46.60
2022-11-29T16:43:09.152Z,56.83
2022-11-29T16:45:38.666Z,47.38
2022-11-29T16:48:29.952Z,46.00
2022-11-29T16:51:18.067Z,54.30
2022-11-29T16:53:49.824Z,48.00
2022-11-29T16:56:22.198Z,52.95
2022-11-29T16:59:24.922Z,48.78
2022-11-29T17:01:41.558Z,49.92
2022-11-29T17:04:10.070Z,54.45
2022-11-29T17:06:37.933Z,45.65
2022-11-29T17:09:06.020Z,42.53
2022-11-29T17:11:34.826Z,47.17
2022-11-29T17:14:02.316Z,50.20
2022-11-29T17:16:29.830Z,44.53
2022-11-29T17:18:57.287Z,48.85
2022-11-29T17:21:26.007Z,52.75
2022-11-29T17:23:54.476Z,54.30
2022-11-29T17:26:22.978Z,54.60
2022-11-29T17:28:53.108Z,43.78
2022-11-29T17:31:22.689Z,57.17
2022-11-29T17:33:50.301Z,50.90
2022-11-29T17:36:20.900Z,54.22
2022-11-29T17:38:48.725Z,57.67
2022-11-29T17:41:18.548Z,55.08
2022-11-29T17:43:46.019Z,55.97
2022-11-29T17:46:16.740Z,52.90
2022-11-29T17:48:46.460Z,57.50
2022-11-29T17:51:43.751Z,60.05
2022-11-29T17:54:04.281Z,52.85
2022-11-29T17:56:32.247Z,63.15
2022-11-29T17:59:01.804Z,57.92
2022-11-29T18:01:33.243Z,49.67
2022-11-29T18:04:02.621Z,51.80
2022-11-29T18:06:32.202Z,55.67
2022-11-29T18:09:01.328Z,56.70
2022-11-29T18:11:30.893Z,61.45
2022-11-29T18:14:00.104Z,59.05
2022-11-29T18:16:30.596Z,58.97
2022-11-29T18:19:00.320Z,49.67
2022-11-29T18:21:28.459Z,57.03
2022-11-29T18:23:56.094Z,51.20
2022-11-29T18:26:25.628Z,58.55
2022-11-29T18:28:53.436Z,56.38
2022-11-29T18:31:22.662Z,53.30
2022-11-29T18:33:54.248Z,55.78
2022-11-29T18:36:24.009Z,54.88
2022-11-29T18:38:56.732Z,52.55
2022-11-29T18:41:25.852Z,52.50
2022-11-29T18:43:58.754Z,55.15
2022-11-29T18:46:28.171Z,57.13
2022-11-29T18:48:57.100Z,55.85
2022-11-29T18:51:24.617Z,55.75
2022-11-29T18:53:53.104Z,53.35
2022-11-29T18:56:23.008Z,49.92
2022-11-29T18:58:58.203Z,51.50
2022-11-29T19:01:27.875Z,59.40
2022-11-29T19:04:00.079Z,57.05
2022-11-29T19:06:35.437Z,56.78
2022-11-29T19:09:07.795Z,63.17
2022-11-29T19:11:35.488Z,64.97
2022-11-29T19:14:05.196Z,52.67
2022-11-29T19:16:34.372Z,57.42
2022-11-29T19:19:04.131Z,49.60
2022-11-29T19:21:34.272Z,56.92
2022-11-29T19:24:03.485Z,50.75
2022-11-29T19:26:32.574Z,56.72
2022-11-29T19:29:01.788Z,53.80
2022-11-29T19:31:29.510Z,57.00
2022-11-29T19:33:58.075Z,54.65
2022-11-29T19:36:29.611Z,56.45
2022-11-29T19:38:58.061Z,54.58
2022-11-29T19:41:27.471Z,57.28
2022-11-29T19:43:56.458Z,56.65
2022-11-29T19:46:26.413Z,51.67
2022-11-29T19:49:01.409Z,55.05
2022-11-29T19:51:31.257Z,53.28
2022-11-29T19:54:00.658Z,58.55
2022-11-29T19:56:29.847Z,48.03
2022-11-29T19:58:59.615Z,50.75
2022-11-29T20:01:36.049Z,49.60
2022-11-29T20:04:07.738Z,55.70
2022-11-29T20:06:36.944Z,56.10
2022-11-29T20:09:06.047Z,49.25
2022-11-29T20:11:33.651Z,50.95
2022-11-29T20:14:03.497Z,52.97
2022-11-29T20:16:32.219Z,62.03
2022-11-29T20:19:00.207Z,58.90
2022-11-29T20:21:29.598Z,52.65
2022-11-29T20:24:00.536Z,41.95
2022-11-29T20:26:28.987Z,47.58
2022-11-29T20:28:56.662Z,46.63
2022-11-29T20:31:34.210Z,53.55
2022-11-29T20:34:02.168Z,48.00
2022-11-29T20:36:43.161Z,50.05
2022-11-29T20:39:26.172Z,47.45
2022-11-29T20:42:10.717Z,48.75
2022-11-29T20:44:40.217Z,47.95
2022-11-29T20:47:17.180Z,44.92
2022-11-29T20:49:45.075Z,52.47
2022-11-29T20:52:24.920Z,54.55
2022-11-29T20:54:54.224Z,47.33
2022-11-29T20:57:23.983Z,48.90
2022-11-29T20:59:51.552Z,48.88
2022-11-29T21:02:23.257Z,48.75
2022-11-29T21:04:51.020Z,49.78
2022-11-29T21:07:18.876Z,50.88
2022-11-29T21:09:46.934Z,48.38
2022-11-29T21:12:16.956Z,56.42
2022-11-29T21:14:45.147Z,53.15
2022-11-29T21:17:13.572Z,56.47
2022-11-29T21:19:41.577Z,50.03
2022-11-29T21:22:17.911Z,51.25
2022-11-29T21:24:54.436Z,42.35
2022-11-29T21:27:28.216Z,53.42
2022-11-29T21:29:56.722Z,43.83
2022-11-29T21:32:25.853Z,41.83
2022-11-29T21:34:53.855Z,47.53
2022-11-29T21:37:26.079Z,50.40
2022-11-29T21:39:54.565Z,53.72
2022-11-29T21:42:23.490Z,47.63
2022-11-29T21:44:51.072Z,48.33
2022-11-29T21:47:19.810Z,54.53
2022-11-29T21:49:47.909Z,48.00
2022-11-29T21:52:22.047Z,59.38
2022-11-29T21:54:50.353Z,48.15
2022-11-29T21:57:17.901Z,44.90
2022-11-29T21:59:47.288Z,46.88
2022-11-29T22:02:14.957Z,42.90
2022-11-29T22:04:42.784Z,52.13
2022-11-29T22:07:10.456Z,50.30
2022-11-29T22:09:37.969Z,49.38
2022-11-29T22:12:19.769Z,42.28
2022-11-29T22:14:54.492Z,46.10
2022-11-29T22:17:22.011Z,52.63
2022-11-29T22:19:49.491Z,49.97
2022-11-29T22:22:17.101Z,52.42
2022-11-29T22:24:44.807Z,48.60
2022-11-29T22:27:12.499Z,51.78
2022-11-29T22:29:39.957Z,50.53
2022-11-29T22:32:08.793Z,52.60
2022-11-29T22:34:36.257Z,53.97
2022-11-29T22:37:03.760Z,49.53
2022-11-29T22:39:31.297Z,49.90
2022-11-29T22:41:58.823Z,54.55
2022-11-29T22:44:26.286Z,58.53
2022-11-29T22:46:53.889Z,61.40
2022-11-29T22:49:22.796Z,58.63
2022-11-29T22:51:50.255Z,60.28
2022-11-29T22:54:17.888Z,54.33
2022-11-29T22:56:46.413Z,57.08
2022-11-29T22:59:14.053Z,54.83
2022-11-29T23:01:42.458Z,59.03
2022-11-29T23:04:11.040Z,51.25
2022-11-29T23:06:42.008Z,57.17
2022-11-29T23:09:11.983Z,64.10
2022-11-29T23:11:39.824Z,55.58
2022-11-29T23:14:07.377Z,54.70
2022-11-29T23:16:35.171Z,65.45
2022-11-29T23:19:02.868Z,59.25
2022-11-29T23:21:32.405Z,48.60
2022-11-29T23:24:01.719Z,57.63
2022-11-29T23:26:31.195Z,52.53
2022-11-29T23:28:59.559Z,53.75
2022-11-29T23:31:27.203Z,60.90
2022-11-29T23:33:55.001Z,57.00
2022-11-29T23:36:22.530Z,62.50
2022-11-29T23:38:50.290Z,59.45
2022-11-29T23:41:19.225Z,57.25
2022-11-29T23:43:46.908Z,57.13
2022-11-29T23:46:16.269Z,64.43
2022-11-29T23:48:43.953Z,58.45
2022-11-29T23:51:12.082Z,61.97
2022-11-29T23:53:40.191Z,56.85
2022-11-29T23:56:10.633Z,58.38
2022-11-29T23:58:40.179Z,56.05
